sensor_id;sensor_type;location;lat;lon;timestamp;P1;durP1;ratioP1;P2;durP2;ratioP2
69890;SDS011;57170;43.964;21.262;2023-02-15T00:01:07;40.53;;;27.30;;
69890;SDS011;57170;43.964;21.262;2023-02-15T00:03:34;41.97;;;26.90;;
69890;SDS011;57170;43.964;21.262;2023-02-15T00:06:00;44.38;;;27.90;;
69890;SDS011;57170;43.964;21.262;2023-02-15T00:08:27;36.53;;;28.52;;
69890;SDS011;57170;43.964;21.262;2023-02-15T00:10:53;36.53;;;25.38;;
69890;SDS011;57170;43.964;21.262;2023-02-15T00:13:19;35.00;;;25.05;;
69890;SDS011;57170;43.964;21.262;2023-02-15T00:15:45;40.20;;;28.77;;
69890;SDS011;57170;43.964;21.262;2023-02-15T00:18:11;34.63;;;24.77;;
69890;SDS011;57170;43.964;21.262;2023-02-15T00:20:37;36.63;;;26.65;;
69890;SDS011;57170;43.964;21.262;2023-02-15T00:23:03;39.08;;;25.85;;
69890;SDS011;57170;43.964;21.262;2023-02-15T00:25:29;34.33;;;25.60;;
69890;SDS011;57170;43.964;21.262;2023-02-15T00:27:55;41.38;;;25.90;;
69890;SDS011;57170;43.964;21.262;2023-02-15T00:30:21;37.50;;;25.20;;
69890;SDS011;57170;43.964;21.262;2023-02-15T00:32:47;39.45;;;25.52;;
69890;SDS011;57170;43.964;21.262;2023-02-15T00:35:13;42.58;;;28.77;;
69890;SDS011;57170;43.964;21.262;2023-02-15T00:37:39;39.10;;;28.48;;
69890;SDS011;57170;43.964;21.262;2023-02-15T00:40:05;42.70;;;29.73;;
69890;SDS011;57170;43.964;21.262;2023-02-15T00:42:32;41.42;;;27.23;;
69890;SDS011;57170;43.964;21.262;2023-02-15T00:44:58;36.33;;;25.25;;
69890;SDS011;57170;43.964;21.262;2023-02-15T00:47:24;36.30;;;25.75;;
69890;SDS011;57170;43.964;21.262;2023-02-15T00:49:50;38.78;;;25.35;;
69890;SDS011;57170;43.964;21.262;2023-02-15T00:52:16;34.83;;;24.60;;
69890;SDS011;57170;43.964;21.262;2023-02-15T00:54:42;42.50;;;26.00;;
69890;SDS011;57170;43.964;21.262;2023-02-15T00:57:08;39.38;;;26.77;;
69890;SDS011;57170;43.964;21.262;2023-02-15T00:59:34;38.72;;;24.73;;
69890;SDS011;57170;43.964;21.262;2023-02-15T01:02:00;33.38;;;24.10;;
69890;SDS011;57170;43.964;21.262;2023-02-15T01:04:26;40.30;;;24.73;;
69890;SDS011;57170;43.964;21.262;2023-02-15T01:06:52;37.90;;;25.42;;
69890;SDS011;57170;43.964;21.262;2023-02-15T01:09:18;41.30;;;28.50;;
69890;SDS011;57170;43.964;21.262;2023-02-15T01:11:44;39.40;;;28.10;;
69890;SDS011;57170;43.964;21.262;2023-02-15T01:14:10;39.85;;;27.67;;
69890;SDS011;57170;43.964;21.262;2023-02-15T01:16:38;38.63;;;26.25;;
69890;SDS011;57170;43.964;21.262;2023-02-15T01:19:04;41.13;;;25.77;;
69890;SDS011;57170;43.964;21.262;2023-02-15T01:21:31;41.88;;;27.48;;
69890;SDS011;57170;43.964;21.262;2023-02-15T01:23:59;44.85;;;30.02;;
69890;SDS011;57170;43.964;21.262;2023-02-15T01:26:25;52.17;;;34.03;;
69890;SDS011;57170;43.964;21.262;2023-02-15T01:28:51;44.20;;;29.35;;
69890;SDS011;57170;43.964;21.262;2023-02-15T01:31:19;38.05;;;23.83;;
69890;SDS011;57170;43.964;21.262;2023-02-15T01:33:46;44.35;;;30.55;;
69890;SDS011;57170;43.964;21.262;2023-02-15T01:36:12;40.55;;;26.67;;
69890;SDS011;57170;43.964;21.262;2023-02-15T01:38:39;45.42;;;28.77;;
69890;SDS011;57170;43.964;21.262;2023-02-15T01:41:06;41.85;;;27.17;;
69890;SDS011;57170;43.964;21.262;2023-02-15T01:43:52;44.53;;;27.65;;
69890;SDS011;57170;43.964;21.262;2023-02-15T01:46:19;41.50;;;27.95;;
69890;SDS011;57170;43.964;21.262;2023-02-15T01:48:50;39.65;;;24.25;;
69890;SDS011;57170;43.964;21.262;2023-02-15T01:51:18;42.13;;;27.85;;
69890;SDS011;57170;43.964;21.262;2023-02-15T01:54:09;43.42;;;29.33;;
69890;SDS011;57170;43.964;21.262;2023-02-15T01:56:33;46.40;;;28.40;;
69890;SDS011;57170;43.964;21.262;2023-02-15T01:59:02;49.63;;;31.15;;
69890;SDS011;57170;43.964;21.262;2023-02-15T02:01:30;44.22;;;30.83;;
69890;SDS011;57170;43.964;21.262;2023-02-15T02:06:32;43.58;;;30.30;;
69890;SDS011;57170;43.964;21.262;2023-02-15T02:08:59;43.92;;;29.10;;
69890;SDS011;57170;43.964;21.262;2023-02-15T02:11:25;39.65;;;27.83;;
69890;SDS011;57170;43.964;21.262;2023-02-15T02:13:51;46.25;;;32.28;;
69890;SDS011;57170;43.964;21.262;2023-02-15T02:16:24;47.10;;;27.90;;
69890;SDS011;57170;43.964;21.262;2023-02-15T02:42:39;48.33;;;32.63;;
69890;SDS011;57170;43.964;21.262;2023-02-15T02:45:07;55.50;;;35.83;;
69890;SDS011;57170;43.964;21.262;2023-02-15T02:47:36;52.55;;;35.95;;
69890;SDS011;57170;43.964;21.262;2023-02-15T02:50:05;59.25;;;41.00;;
69890;SDS011;57170;43.964;21.262;2023-02-15T02:55:05;51.95;;;31.90;;
69890;SDS011;57170;43.964;21.262;2023-02-15T02:57:32;49.95;;;33.67;;
69890;SDS011;57170;43.964;21.262;2023-02-15T02:59:59;51.33;;;35.85;;
69890;SDS011;57170;43.964;21.262;2023-02-15T03:02:29;51.75;;;33.70;;
69890;SDS011;57170;43.964;21.262;2023-02-15T03:04:59;50.25;;;36.53;;
69890;SDS011;57170;43.964;21.262;2023-02-15T03:07:28;42.55;;;29.70;;
69890;SDS011;57170;43.964;21.262;2023-02-15T03:10:00;47.50;;;27.77;;
69890;SDS011;57170;43.964;21.262;2023-02-15T03:12:27;43.47;;;29.80;;
69890;SDS011;57170;43.964;21.262;2023-02-15T03:15:05;48.00;;;29.83;;
69890;SDS011;57170;43.964;21.262;2023-02-15T03:17:33;45.92;;;30.48;;
69890;SDS011;57170;43.964;21.262;2023-02-15T03:20:04;56.47;;;37.47;;
69890;SDS011;57170;43.964;21.262;2023-02-15T03:22:35;45.65;;;30.35;;
69890;SDS011;57170;43.964;21.262;2023-02-15T03:27:36;41.60;;;30.65;;
69890;SDS011;57170;43.964;21.262;2023-02-15T03:30:03;45.22;;;31.73;;
69890;SDS011;57170;43.964;21.262;2023-02-15T03:32:31;47.15;;;32.17;;
69890;SDS011;57170;43.964;21.262;2023-02-15T03:34:58;43.53;;;29.75;;
69890;SDS011;57170;43.964;21.262;2023-02-15T03:37:26;44.30;;;30.13;;
69890;SDS011;57170;43.964;21.262;2023-02-15T03:40:00;40.72;;;29.33;;
69890;SDS011;57170;43.964;21.262;2023-02-15T03:42:58;42.67;;;29.33;;
69890;SDS011;57170;43.964;21.262;2023-02-15T03:45:26;41.47;;;27.48;;
69890;SDS011;57170;43.964;21.262;2023-02-15T03:47:53;44.13;;;31.38;;
69890;SDS011;57170;43.964;21.262;2023-02-15T03:50:24;41.97;;;29.00;;
69890;SDS011;57170;43.964;21.262;2023-02-15T03:53:09;41.92;;;30.80;;
69890;SDS011;57170;43.964;21.262;2023-02-15T03:55:37;45.85;;;31.42;;
69890;SDS011;57170;43.964;21.262;2023-02-15T03:58:03;49.03;;;33.03;;
69890;SDS011;57170;43.964;21.262;2023-02-15T04:00:54;44.92;;;31.15;;
69890;SDS011;57170;43.964;21.262;2023-02-15T04:04:03;47.20;;;30.45;;
69890;SDS011;57170;43.964;21.262;2023-02-15T04:06:27;50.70;;;32.53;;
69890;SDS011;57170;43.964;21.262;2023-02-15T04:08:53;49.78;;;30.88;;
69890;SDS011;57170;43.964;21.262;2023-02-15T04:11:37;43.40;;;29.50;;
69890;SDS011;57170;43.964;21.262;2023-02-15T04:14:03;50.35;;;32.30;;
69890;SDS011;57170;43.964;21.262;2023-02-15T04:16:49;51.20;;;32.92;;
69890;SDS011;57170;43.964;21.262;2023-02-15T04:19:15;47.58;;;31.50;;
69890;SDS011;57170;43.964;21.262;2023-02-15T04:22:00;46.58;;;29.13;;
69890;SDS011;57170;43.964;21.262;2023-02-15T04:24:44;47.28;;;31.30;;
69890;SDS011;57170;43.964;21.262;2023-02-15T04:27:29;46.00;;;31.52;;
69890;SDS011;57170;43.964;21.262;2023-02-15T04:29:55;47.10;;;31.55;;
69890;SDS011;57170;43.964;21.262;2023-02-15T04:32:21;47.95;;;30.63;;
69890;SDS011;57170;43.964;21.262;2023-02-15T04:34:47;46.40;;;32.63;;
69890;SDS011;57170;43.964;21.262;2023-02-15T04:37:13;46.65;;;33.28;;
69890;SDS011;57170;43.964;21.262;2023-02-15T04:39:39;50.38;;;33.58;;
69890;SDS011;57170;43.964;21.262;2023-02-15T04:42:05;54.17;;;35.08;;
69890;SDS011;57170;43.964;21.262;2023-02-15T04:44:31;50.70;;;35.97;;
69890;SDS011;57170;43.964;21.262;2023-02-15T04:46:57;48.28;;;32.25;;
69890;SDS011;57170;43.964;21.262;2023-02-15T04:49:23;50.50;;;30.98;;
69890;SDS011;57170;43.964;21.262;2023-02-15T04:51:49;49.03;;;33.38;;
69890;SDS011;57170;43.964;21.262;2023-02-15T04:54:15;47.45;;;30.95;;
69890;SDS011;57170;43.964;21.262;2023-02-15T04:56:42;55.17;;;34.72;;
69890;SDS011;57170;43.964;21.262;2023-02-15T04:59:11;45.50;;;32.00;;
69890;SDS011;57170;43.964;21.262;2023-02-15T05:01:37;53.70;;;34.50;;
69890;SDS011;57170;43.964;21.262;2023-02-15T05:04:03;54.25;;;34.10;;
69890;SDS011;57170;43.964;21.262;2023-02-15T05:06:29;61.60;;;35.22;;
69890;SDS011;57170;43.964;21.262;2023-02-15T05:08:55;59.92;;;37.72;;
69890;SDS011;57170;43.964;21.262;2023-02-15T05:11:23;53.65;;;35.00;;
69890;SDS011;57170;43.964;21.262;2023-02-15T05:13:50;54.30;;;36.90;;
69890;SDS011;57170;43.964;21.262;2023-02-15T05:16:16;54.88;;;36.22;;
69890;SDS011;57170;43.964;21.262;2023-02-15T05:18:42;58.33;;;38.33;;
69890;SDS011;57170;43.964;21.262;2023-02-15T05:21:08;60.83;;;37.35;;
69890;SDS011;57170;43.964;21.262;2023-02-15T05:23:34;57.55;;;38.17;;
69890;SDS011;57170;43.964;21.262;2023-02-15T05:26:00;52.55;;;36.63;;
69890;SDS011;57170;43.964;21.262;2023-02-15T05:28:45;55.40;;;37.70;;
69890;SDS011;57170;43.964;21.262;2023-02-15T05:31:12;55.03;;;37.50;;
69890;SDS011;57170;43.964;21.262;2023-02-15T05:33:38;60.13;;;37.55;;
69890;SDS011;57170;43.964;21.262;2023-02-15T05:36:04;56.28;;;40.40;;
69890;SDS011;57170;43.964;21.262;2023-02-15T05:38:30;64.55;;;39.33;;
69890;SDS011;57170;43.964;21.262;2023-02-15T05:40:56;58.20;;;39.95;;
69890;SDS011;57170;43.964;21.262;2023-02-15T05:43:23;59.58;;;42.97;;
69890;SDS011;57170;43.964;21.262;2023-02-15T05:45:50;63.25;;;42.65;;
69890;SDS011;57170;43.964;21.262;2023-02-15T05:48:16;58.65;;;41.45;;
69890;SDS011;57170;43.964;21.262;2023-02-15T05:50:43;61.55;;;40.25;;
69890;SDS011;57170;43.964;21.262;2023-02-15T05:53:09;57.30;;;39.78;;
69890;SDS011;57170;43.964;21.262;2023-02-15T05:55:38;63.33;;;39.15;;
69890;SDS011;57170;43.964;21.262;2023-02-15T05:58:05;60.60;;;40.40;;
69890;SDS011;57170;43.964;21.262;2023-02-15T06:00:31;53.70;;;36.65;;
69890;SDS011;57170;43.964;21.262;2023-02-15T06:02:57;62.03;;;39.92;;
69890;SDS011;57170;43.964;21.262;2023-02-15T06:05:23;55.47;;;39.67;;
69890;SDS011;57170;43.964;21.262;2023-02-15T06:07:49;58.45;;;40.03;;
69890;SDS011;57170;43.964;21.262;2023-02-15T06:10:15;61.25;;;39.08;;
69890;SDS011;57170;43.964;21.262;2023-02-15T06:12:43;57.72;;;39.60;;
69890;SDS011;57170;43.964;21.262;2023-02-15T06:15:09;60.15;;;40.13;;
69890;SDS011;57170;43.964;21.262;2023-02-15T06:17:35;60.17;;;38.97;;
69890;SDS011;57170;43.964;21.262;2023-02-15T06:20:01;54.05;;;38.15;;
69890;SDS011;57170;43.964;21.262;2023-02-15T06:22:27;60.85;;;41.47;;
69890;SDS011;57170;43.964;21.262;2023-02-15T06:24:53;62.00;;;39.80;;
69890;SDS011;57170;43.964;21.262;2023-02-15T06:27:19;61.22;;;40.72;;
69890;SDS011;57170;43.964;21.262;2023-02-15T06:29:45;62.90;;;40.78;;
69890;SDS011;57170;43.964;21.262;2023-02-15T06:32:11;68.55;;;43.63;;
69890;SDS011;57170;43.964;21.262;2023-02-15T06:34:37;57.13;;;40.00;;
69890;SDS011;57170;43.964;21.262;2023-02-15T06:37:04;64.13;;;42.72;;
69890;SDS011;57170;43.964;21.262;2023-02-15T06:39:30;67.80;;;42.50;;
69890;SDS011;57170;43.964;21.262;2023-02-15T06:41:57;65.28;;;43.55;;
69890;SDS011;57170;43.964;21.262;2023-02-15T06:44:23;55.35;;;39.33;;
69890;SDS011;57170;43.964;21.262;2023-02-15T06:46:49;68.20;;;46.83;;
69890;SDS011;57170;43.964;21.262;2023-02-15T06:49:15;67.78;;;47.63;;
69890;SDS011;57170;43.964;21.262;2023-02-15T06:51:41;66.47;;;45.33;;
69890;SDS011;57170;43.964;21.262;2023-02-15T06:54:07;69.93;;;48.65;;
69890;SDS011;57170;43.964;21.262;2023-02-15T06:56:33;66.32;;;46.65;;
69890;SDS011;57170;43.964;21.262;2023-02-15T06:58:59;72.47;;;47.13;;
69890;SDS011;57170;43.964;21.262;2023-02-15T07:01:25;64.47;;;46.90;;
69890;SDS011;57170;43.964;21.262;2023-02-15T07:03:51;69.07;;;49.35;;
69890;SDS011;57170;43.964;21.262;2023-02-15T07:06:17;68.80;;;48.00;;
69890;SDS011;57170;43.964;21.262;2023-02-15T07:08:43;78.93;;;51.55;;
69890;SDS011;57170;43.964;21.262;2023-02-15T07:11:09;66.40;;;51.38;;
69890;SDS011;57170;43.964;21.262;2023-02-15T07:13:54;72.32;;;49.97;;
69890;SDS011;57170;43.964;21.262;2023-02-15T07:16:20;69.80;;;47.17;;
69890;SDS011;57170;43.964;21.262;2023-02-15T07:18:46;74.70;;;53.15;;
69890;SDS011;57170;43.964;21.262;2023-02-15T07:21:13;69.30;;;49.95;;
69890;SDS011;57170;43.964;21.262;2023-02-15T07:23:39;75.10;;;53.53;;
69890;SDS011;57170;43.964;21.262;2023-02-15T07:26:05;100.43;;;69.63;;
69890;SDS011;57170;43.964;21.262;2023-02-15T07:28:32;106.22;;;68.10;;
69890;SDS011;57170;43.964;21.262;2023-02-15T07:31:00;85.53;;;54.90;;
69890;SDS011;57170;43.964;21.262;2023-02-15T07:33:26;77.25;;;55.53;;
69890;SDS011;57170;43.964;21.262;2023-02-15T07:35:55;72.10;;;48.63;;
69890;SDS011;57170;43.964;21.262;2023-02-15T07:38:23;67.15;;;48.13;;
69890;SDS011;57170;43.964;21.262;2023-02-15T07:40:49;58.15;;;42.70;;
69890;SDS011;57170;43.964;21.262;2023-02-15T07:43:15;60.88;;;43.45;;
69890;SDS011;57170;43.964;21.262;2023-02-15T07:45:41;61.92;;;42.97;;
69890;SDS011;57170;43.964;21.262;2023-02-15T07:48:07;58.47;;;40.20;;
69890;SDS011;57170;43.964;21.262;2023-02-15T07:50:34;63.28;;;38.33;;
69890;SDS011;57170;43.964;21.262;2023-02-15T07:53:03;59.65;;;38.30;;
69890;SDS011;57170;43.964;21.262;2023-02-15T07:55:29;59.50;;;44.40;;
69890;SDS011;57170;43.964;21.262;2023-02-15T07:57:55;60.97;;;42.35;;
69890;SDS011;57170;43.964;21.262;2023-02-15T08:00:21;63.80;;;43.88;;
69890;SDS011;57170;43.964;21.262;2023-02-15T08:02:56;71.15;;;43.67;;
69890;SDS011;57170;43.964;21.262;2023-02-15T08:05:41;61.78;;;44.00;;
69890;SDS011;57170;43.964;21.262;2023-02-15T08:08:07;59.63;;;38.10;;
69890;SDS011;57170;43.964;21.262;2023-02-15T08:10:34;63.80;;;41.13;;
69890;SDS011;57170;43.964;21.262;2023-02-15T08:13:19;49.60;;;35.28;;
69890;SDS011;57170;43.964;21.262;2023-02-15T08:15:51;59.33;;;40.05;;
69890;SDS011;57170;43.964;21.262;2023-02-15T08:18:17;62.67;;;47.42;;
69890;SDS011;57170;43.964;21.262;2023-02-15T08:20:48;65.53;;;46.22;;
69890;SDS011;57170;43.964;21.262;2023-02-15T08:23:14;70.15;;;45.85;;
69890;SDS011;57170;43.964;21.262;2023-02-15T08:25:40;61.20;;;42.30;;
69890;SDS011;57170;43.964;21.262;2023-02-15T08:28:06;68.07;;;46.70;;
69890;SDS011;57170;43.964;21.262;2023-02-15T08:30:33;58.15;;;39.25;;
69890;SDS011;57170;43.964;21.262;2023-02-15T08:32:59;61.67;;;41.47;;
69890;SDS011;57170;43.964;21.262;2023-02-15T08:35:25;57.25;;;39.88;;
69890;SDS011;57170;43.964;21.262;2023-02-15T08:37:51;48.65;;;34.42;;
69890;SDS011;57170;43.964;21.262;2023-02-15T08:40:17;57.55;;;39.25;;
69890;SDS011;57170;43.964;21.262;2023-02-15T08:42:43;49.78;;;36.58;;
69890;SDS011;57170;43.964;21.262;2023-02-15T08:45:09;65.72;;;46.15;;
69890;SDS011;57170;43.964;21.262;2023-02-15T08:47:35;58.90;;;40.65;;
69890;SDS011;57170;43.964;21.262;2023-02-15T08:50:01;62.75;;;42.47;;
69890;SDS011;57170;43.964;21.262;2023-02-15T08:52:27;48.95;;;34.08;;
69890;SDS011;57170;43.964;21.262;2023-02-15T08:54:53;60.38;;;37.85;;
69890;SDS011;57170;43.964;21.262;2023-02-15T08:57:20;59.83;;;40.25;;
69890;SDS011;57170;43.964;21.262;2023-02-15T08:59:46;48.65;;;35.70;;
69890;SDS011;57170;43.964;21.262;2023-02-15T09:02:12;51.30;;;35.55;;
69890;SDS011;57170;43.964;21.262;2023-02-15T09:04:38;57.63;;;39.92;;
69890;SDS011;57170;43.964;21.262;2023-02-15T09:07:04;50.33;;;35.60;;
69890;SDS011;57170;43.964;21.262;2023-02-15T09:09:30;54.45;;;36.75;;
69890;SDS011;57170;43.964;21.262;2023-02-15T09:11:56;55.13;;;38.35;;
69890;SDS011;57170;43.964;21.262;2023-02-15T09:14:23;61.15;;;40.95;;
69890;SDS011;57170;43.964;21.262;2023-02-15T09:16:51;46.38;;;35.88;;
69890;SDS011;57170;43.964;21.262;2023-02-15T09:19:18;62.97;;;39.15;;
69890;SDS011;57170;43.964;21.262;2023-02-15T09:21:45;56.60;;;41.15;;
69890;SDS011;57170;43.964;21.262;2023-02-15T09:24:12;48.67;;;36.35;;
69890;SDS011;57170;43.964;21.262;2023-02-15T09:26:39;46.50;;;32.50;;
69890;SDS011;57170;43.964;21.262;2023-02-15T09:29:05;48.20;;;34.58;;
69890;SDS011;57170;43.964;21.262;2023-02-15T09:31:33;60.97;;;41.97;;
69890;SDS011;57170;43.964;21.262;2023-02-15T09:33:59;50.97;;;36.55;;
69890;SDS011;57170;43.964;21.262;2023-02-15T09:38:58;41.95;;;33.03;;
69890;SDS011;57170;43.964;21.262;2023-02-15T09:41:50;45.63;;;34.83;;
69890;SDS011;57170;43.964;21.262;2023-02-15T09:44:13;43.83;;;33.47;;
69890;SDS011;57170;43.964;21.262;2023-02-15T09:51:52;46.05;;;35.15;;
69890;SDS011;57170;43.964;21.262;2023-02-15T09:54:55;41.55;;;32.78;;
69890;SDS011;57170;43.964;21.262;2023-02-15T09:59:56;50.00;;;35.20;;
69890;SDS011;57170;43.964;21.262;2023-02-15T10:17:52;52.05;;;38.15;;
69890;SDS011;57170;43.964;21.262;2023-02-15T10:20:33;52.42;;;36.25;;
69890;SDS011;57170;43.964;21.262;2023-02-15T10:28:23;40.67;;;29.15;;
69890;SDS011;57170;43.964;21.262;2023-02-15T10:30:51;42.92;;;32.92;;
69890;SDS011;57170;43.964;21.262;2023-02-15T10:38:37;35.88;;;25.48;;
69890;SDS011;57170;43.964;21.262;2023-02-15T10:51:29;38.92;;;28.17;;
69890;SDS011;57170;43.964;21.262;2023-02-15T10:54:02;36.70;;;25.98;;
69890;SDS011;57170;43.964;21.262;2023-02-15T10:56:33;37.47;;;27.38;;
69890;SDS011;57170;43.964;21.262;2023-02-15T11:06:52;30.10;;;21.23;;
69890;SDS011;57170;43.964;21.262;2023-02-15T11:09:20;40.45;;;28.90;;
69890;SDS011;57170;43.964;21.262;2023-02-15T11:11:48;30.88;;;23.55;;
69890;SDS011;57170;43.964;21.262;2023-02-15T11:14:17;33.58;;;23.27;;
69890;SDS011;57170;43.964;21.262;2023-02-15T11:16:46;30.65;;;23.27;;
69890;SDS011;57170;43.964;21.262;2023-02-15T11:19:18;45.20;;;29.13;;
69890;SDS011;57170;43.964;21.262;2023-02-15T11:21:48;31.38;;;23.33;;
69890;SDS011;57170;43.964;21.262;2023-02-15T11:24:16;31.38;;;26.38;;
69890;SDS011;57170;43.964;21.262;2023-02-15T11:31:59;35.03;;;25.95;;
69890;SDS011;57170;43.964;21.262;2023-02-15T11:34:37;36.78;;;26.95;;
69890;SDS011;57170;43.964;21.262;2023-02-15T11:37:08;34.33;;;25.00;;
69890;SDS011;57170;43.964;21.262;2023-02-15T11:39:35;33.97;;;24.38;;
69890;SDS011;57170;43.964;21.262;2023-02-15T11:42:04;40.53;;;27.67;;
69890;SDS011;57170;43.964;21.262;2023-02-15T11:44:34;46.92;;;30.50;;
69890;SDS011;57170;43.964;21.262;2023-02-15T11:47:01;34.97;;;25.42;;
69890;SDS011;57170;43.964;21.262;2023-02-15T11:49:31;41.55;;;31.38;;
69890;SDS011;57170;43.964;21.262;2023-02-15T11:51:58;36.30;;;29.23;;
69890;SDS011;57170;43.964;21.262;2023-02-15T11:54:29;33.28;;;24.63;;
69890;SDS011;57170;43.964;21.262;2023-02-15T11:56:58;27.58;;;21.88;;
69890;SDS011;57170;43.964;21.262;2023-02-15T11:59:29;80.60;;;54.83;;
69890;SDS011;57170;43.964;21.262;2023-02-15T12:01:58;38.03;;;26.85;;
69890;SDS011;57170;43.964;21.262;2023-02-15T12:04:25;34.60;;;26.25;;
69890;SDS011;57170;43.964;21.262;2023-02-15T12:07:01;34.50;;;24.55;;
69890;SDS011;57170;43.964;21.262;2023-02-15T12:09:49;35.10;;;26.65;;
69890;SDS011;57170;43.964;21.262;2023-02-15T12:12:29;36.00;;;25.73;;
69890;SDS011;57170;43.964;21.262;2023-02-15T12:14:56;32.08;;;25.13;;
69890;SDS011;57170;43.964;21.262;2023-02-15T12:17:24;33.78;;;26.30;;
69890;SDS011;57170;43.964;21.262;2023-02-15T12:19:52;27.65;;;21.70;;
69890;SDS011;57170;43.964;21.262;2023-02-15T12:24:47;38.50;;;27.77;;
69890;SDS011;57170;43.964;21.262;2023-02-15T12:27:19;33.58;;;26.90;;
69890;SDS011;57170;43.964;21.262;2023-02-15T12:32:21;36.47;;;26.65;;
69890;SDS011;57170;43.964;21.262;2023-02-15T12:34:48;30.10;;;22.05;;
69890;SDS011;57170;43.964;21.262;2023-02-15T12:37:25;37.65;;;26.55;;
69890;SDS011;57170;43.964;21.262;2023-02-15T12:39:56;36.42;;;29.25;;
69890;SDS011;57170;43.964;21.262;2023-02-15T12:42:23;32.22;;;23.90;;
69890;SDS011;57170;43.964;21.262;2023-02-15T12:45:02;33.42;;;27.75;;
69890;SDS011;57170;43.964;21.262;2023-02-15T12:47:29;42.78;;;28.00;;
69890;SDS011;57170;43.964;21.262;2023-02-15T12:52:32;35.50;;;27.65;;
69890;SDS011;57170;43.964;21.262;2023-02-15T12:55:09;59.92;;;41.42;;
69890;SDS011;57170;43.964;21.262;2023-02-15T12:57:36;33.17;;;25.85;;
69890;SDS011;57170;43.964;21.262;2023-02-15T13:00:04;36.03;;;26.83;;
69890;SDS011;57170;43.964;21.262;2023-02-15T13:02:46;43.35;;;33.05;;
69890;SDS011;57170;43.964;21.262;2023-02-15T13:07:46;31.10;;;24.85;;
69890;SDS011;57170;43.964;21.262;2023-02-15T13:10:52;37.42;;;30.20;;
69890;SDS011;57170;43.964;21.262;2023-02-15T13:13:10;36.83;;;26.60;;
69890;SDS011;57170;43.964;21.262;2023-02-15T13:15:38;31.60;;;26.20;;
69890;SDS011;57170;43.964;21.262;2023-02-15T13:18:10;37.15;;;28.10;;
69890;SDS011;57170;43.964;21.262;2023-02-15T13:20:38;40.42;;;30.05;;
69890;SDS011;57170;43.964;21.262;2023-02-15T13:23:22;38.15;;;28.42;;
69890;SDS011;57170;43.964;21.262;2023-02-15T13:25:50;33.70;;;23.08;;
69890;SDS011;57170;43.964;21.262;2023-02-15T13:28:17;32.88;;;22.20;;
69890;SDS011;57170;43.964;21.262;2023-02-15T13:30:45;27.58;;;20.60;;
69890;SDS011;57170;43.964;21.262;2023-02-15T13:35:52;34.40;;;21.80;;
69890;SDS011;57170;43.964;21.262;2023-02-15T13:41:09;42.05;;;31.13;;
69890;SDS011;57170;43.964;21.262;2023-02-15T13:51:22;27.88;;;21.00;;
69890;SDS011;57170;43.964;21.262;2023-02-15T13:59:11;35.95;;;28.80;;
69890;SDS011;57170;43.964;21.262;2023-02-15T14:09:33;39.95;;;28.83;;
69890;SDS011;57170;43.964;21.262;2023-02-15T14:17:31;38.15;;;27.00;;
69890;SDS011;57170;43.964;21.262;2023-02-15T14:22:50;34.05;;;26.60;;
69890;SDS011;57170;43.964;21.262;2023-02-15T14:30:55;27.35;;;22.02;;
69890;SDS011;57170;43.964;21.262;2023-02-15T14:35:58;33.00;;;22.85;;
69890;SDS011;57170;43.964;21.262;2023-02-15T14:41:10;43.85;;;31.52;;
69890;SDS011;57170;43.964;21.262;2023-02-15T14:46:21;35.85;;;24.25;;
69890;SDS011;57170;43.964;21.262;2023-02-15T14:49:04;42.08;;;30.38;;
69890;SDS011;57170;43.964;21.262;2023-02-15T14:56:43;31.77;;;24.35;;
69890;SDS011;57170;43.964;21.262;2023-02-15T15:01:39;33.92;;;23.77;;
69890;SDS011;57170;43.964;21.262;2023-02-15T15:04:22;37.45;;;26.58;;
69890;SDS011;57170;43.964;21.262;2023-02-15T15:14:53;35.72;;;26.55;;
69890;SDS011;57170;43.964;21.262;2023-02-15T15:22:30;39.92;;;27.50;;
69890;SDS011;57170;43.964;21.262;2023-02-15T15:24:57;38.92;;;27.13;;
69890;SDS011;57170;43.964;21.262;2023-02-15T15:30:06;39.60;;;29.30;;
69890;SDS011;57170;43.964;21.262;2023-02-15T15:38:15;44.47;;;33.35;;
69890;SDS011;57170;43.964;21.262;2023-02-15T15:48:33;53.38;;;37.42;;
69890;SDS011;57170;43.964;21.262;2023-02-15T15:51:09;54.97;;;38.83;;
69890;SDS011;57170;43.964;21.262;2023-02-15T15:53:40;52.33;;;37.08;;
69890;SDS011;57170;43.964;21.262;2023-02-15T15:56:12;56.05;;;37.80;;
69890;SDS011;57170;43.964;21.262;2023-02-15T15:58:41;61.60;;;40.70;;
69890;SDS011;57170;43.964;21.262;2023-02-15T16:01:10;56.55;;;41.05;;
69890;SDS011;57170;43.964;21.262;2023-02-15T16:03:41;62.95;;;43.33;;
69890;SDS011;57170;43.964;21.262;2023-02-15T16:06:14;68.60;;;46.45;;
69890;SDS011;57170;43.964;21.262;2023-02-15T16:08:40;75.32;;;49.85;;
69890;SDS011;57170;43.964;21.262;2023-02-15T16:11:25;69.55;;;46.35;;
69890;SDS011;57170;43.964;21.262;2023-02-15T16:13:51;80.60;;;50.85;;
69890;SDS011;57170;43.964;21.262;2023-02-15T16:16:22;83.22;;;56.17;;
69890;SDS011;57170;43.964;21.262;2023-02-15T16:18:49;71.50;;;51.15;;
69890;SDS011;57170;43.964;21.262;2023-02-15T16:21:17;71.78;;;48.03;;
69890;SDS011;57170;43.964;21.262;2023-02-15T16:23:54;56.63;;;41.28;;
69890;SDS011;57170;43.964;21.262;2023-02-15T16:29:16;54.67;;;39.85;;
69890;SDS011;57170;43.964;21.262;2023-02-15T16:31:42;65.10;;;41.72;;
69890;SDS011;57170;43.964;21.262;2023-02-15T16:34:16;58.25;;;42.53;;
69890;SDS011;57170;43.964;21.262;2023-02-15T16:36:43;57.95;;;43.30;;
69890;SDS011;57170;43.964;21.262;2023-02-15T16:39:12;73.97;;;51.15;;
69890;SDS011;57170;43.964;21.262;2023-02-15T16:41:42;74.20;;;52.80;;
69890;SDS011;57170;43.964;21.262;2023-02-15T16:44:16;71.25;;;48.75;;
69890;SDS011;57170;43.964;21.262;2023-02-15T16:46:43;70.72;;;50.15;;
69890;SDS011;57170;43.964;21.262;2023-02-15T16:49:15;67.57;;;48.10;;
69890;SDS011;57170;43.964;21.262;2023-02-15T16:51:43;68.07;;;48.40;;
69890;SDS011;57170;43.964;21.262;2023-02-15T16:54:17;57.78;;;39.40;;
69890;SDS011;57170;43.964;21.262;2023-02-15T16:56:44;54.20;;;38.87;;
69890;SDS011;57170;43.964;21.262;2023-02-15T16:59:54;56.55;;;42.65;;
69890;SDS011;57170;43.964;21.262;2023-02-15T17:02:03;67.47;;;46.13;;
69890;SDS011;57170;43.964;21.262;2023-02-15T17:04:30;107.57;;;71.72;;
69890;SDS011;57170;43.964;21.262;2023-02-15T17:07:04;144.48;;;103.78;;
69890;SDS011;57170;43.964;21.262;2023-02-15T17:09:31;167.23;;;121.88;;
69890;SDS011;57170;43.964;21.262;2023-02-15T17:11:57;184.55;;;130.43;;
69890;SDS011;57170;43.964;21.262;2023-02-15T17:14:28;113.55;;;77.93;;
69890;SDS011;57170;43.964;21.262;2023-02-15T17:16:59;93.40;;;61.17;;
69890;SDS011;57170;43.964;21.262;2023-02-15T17:19:30;79.85;;;56.22;;
69890;SDS011;57170;43.964;21.262;2023-02-15T17:21:58;105.18;;;71.25;;
69890;SDS011;57170;43.964;21.262;2023-02-15T17:24:28;84.45;;;64.38;;
69890;SDS011;57170;43.964;21.262;2023-02-15T17:26:58;97.18;;;70.60;;
69890;SDS011;57170;43.964;21.262;2023-02-15T17:31:55;88.57;;;65.43;;